Time,TemperatureF,DewpointF,PressureIn,WindDirection,WindDirectionDegrees,WindSpeedMPH,WindSpeedGustMPH,Humidity,HourlyPrecipIn,Conditions,Clouds,dailyrainin,SoftwareType,DateUTC
2017-10-22 00:01:00,48.6,48.6,-100.00,North,6,0.6,2.4,100,0.00,,,0.00,,2017-10-22 07:01:00,
2017-10-22 00:06:00,48.6,48.6,-100.00,North,6,0.6,2.4,100,0.00,,,0.00,,2017-10-22 07:06:00,
2017-10-22 00:11:00,48.6,48.6,-100.00,North,6,0.6,2.4,100,0.00,,,0.00,,2017-10-22 07:11:00,
2017-10-22 01:01:00,47.4,47.4,-100.00,East,97,0.5,3.3,100,0.00,,,0.00,,2017-10-22 08:01:00,
2017-10-22 01:06:00,47.4,47.4,-100.00,East,97,0.5,3.3,100,0.00,,,0.00,,2017-10-22 08:06:00,
2017-10-22 01:11:00,47.4,47.4,-100.00,East,97,0.5,3.3,100,0.00,,,0.00,,2017-10-22 08:11:00,
2017-10-22 01:16:00,47.4,47.4,-100.00,NE,42,0.7,2.2,100,0.00,,,0.00,,2017-10-22 08:16:00,
2017-10-22 01:21:00,47.4,47.4,-100.00,NE,42,0.7,2.2,100,0.00,,,0.00,,2017-10-22 08:21:00,
2017-10-22 01:26:00,47.4,47.4,-100.00,NE,42,0.7,2.2,100,0.00,,,0.00,,2017-10-22 08:26:00,
2017-10-22 01:31:00,46.4,46.4,-100.00,North,7,0.6,2.0,100,0.00,,,0.00,,2017-10-22 08:31:00,
2017-10-22 01:36:00,46.4,46.4,-100.00,North,7,0.6,2.0,100,0.00,,,0.00,,2017-10-22 08:36:00,
2017-10-22 01:41:00,46.4,46.4,-100.00,North,7,0.6,2.0,100,0.00,,,0.00,,2017-10-22 08:41:00,
2017-10-22 01:46:00,46.9,46.9,-100.00,NE,56,1.5,3.7,100,0.00,,,0.00,,2017-10-22 08:46:00,
2017-10-22 01:51:00,46.9,46.9,-100.00,NE,56,1.5,3.7,100,0.00,,,0.00,,2017-10-22 08:51:00,
2017-10-22 01:56:00,46.9,46.9,-100.00,NE,56,1.5,3.7,100,0.00,,,0.00,,2017-10-22 08:56:00,
2017-10-22 02:01:00,46.6,46.6,-100.00,East,88,1.3,3.3,100,0.00,,,0.00,,2017-10-22 09:01:00,
2017-10-22 02:06:00,46.6,46.6,-100.00,East,88,1.3,3.3,100,0.00,,,0.00,,2017-10-22 09:06:00,
2017-10-22 02:11:00,46.6,46.6,-100.00,East,88,1.3,3.3,100,0.00,,,0.00,,2017-10-22 09:11:00,
2017-10-22 02:16:00,47.7,47.7,-100.00,SSE,167,0.8,4.2,100,0.00,,,0.00,,2017-10-22 09:16:00,
2017-10-22 02:21:00,47.7,47.7,-100.00,SSE,167,0.8,4.2,100,0.00,,,0.00,,2017-10-22 09:21:00,
2017-10-22 02:26:00,47.7,47.7,-100.00,SSE,167,0.8,4.2,100,0.00,,,0.00,,2017-10-22 09:26:00,
2017-10-22 02:31:00,47.7,47.7,-100.00,NE,38,1.3,3.7,100,0.00,,,0.00,,2017-10-22 09:31:00,
2017-10-22 02:36:00,47.7,47.7,-100.00,NE,38,1.3,3.7,100,0.00,,,0.00,,2017-10-22 09:36:00,
2017-10-22 02:41:00,47.7,47.7,-100.00,NE,38,1.3,3.7,100,0.00,,,0.00,,2017-10-22 09:41:00,
2017-10-22 02:46:00,46.2,46.3,-100.00,NE,42,1.2,2.9,100,0.00,,,0.00,,2017-10-22 09:46:00,
2017-10-22 02:51:00,46.2,46.3,-100.00,NE,42,1.2,2.9,100,0.00,,,0.00,,2017-10-22 09:51:00,
2017-10-22 03:01:00,46.3,46.3,-100.00,NE,49,1.4,3.3,100,0.00,,,0.00,,2017-10-22 10:01:00,
2017-10-22 03:06:00,46.3,46.3,-100.00,NE,49,1.4,3.3,100,0.00,,,0.00,,2017-10-22 10:06:00,
2017-10-22 03:11:00,46.3,46.3,-100.00,NE,49,1.4,3.3,100,0.00,,,0.00,,2017-10-22 10:11:00,
2017-10-22 03:16:00,45.8,45.8,-100.00,NE,42,0.5,1.8,100,0.00,,,0.00,,2017-10-22 10:16:00,